sensor_id;sensor_type;location;lat;lon;timestamp;P1;durP1;ratioP1;P2;durP2;ratioP2
54823;SDS011;40724;53.196;5.980;2022-07-29T00:00:47;2.63;;;1.20;;
54823;SDS011;40724;53.196;5.980;2022-07-29T00:03:13;3.47;;;1.23;;
54823;SDS011;40724;53.196;5.980;2022-07-29T00:05:40;1.95;;;1.13;;
54823;SDS011;40724;53.196;5.980;2022-07-29T00:08:07;3.45;;;1.33;;
54823;SDS011;40724;53.196;5.980;2022-07-29T00:10:33;3.22;;;1.13;;
54823;SDS011;40724;53.196;5.980;2022-07-29T00:12:59;2.65;;;1.25;;
54823;SDS011;40724;53.196;5.980;2022-07-29T00:15:26;6.22;;;1.20;;
54823;SDS011;40724;53.196;5.980;2022-07-29T00:17:52;5.53;;;2.42;;
54823;SDS011;40724;53.196;5.980;2022-07-29T00:20:18;3.05;;;1.52;;
54823;SDS011;40724;53.196;5.980;2022-07-29T00:22:44;4.05;;;1.23;;
54823;SDS011;40724;53.196;5.980;2022-07-29T00:25:11;4.75;;;1.80;;
54823;SDS011;40724;53.196;5.980;2022-07-29T00:27:38;5.70;;;2.15;;
54823;SDS011;40724;53.196;5.980;2022-07-29T00:30:04;4.32;;;1.88;;
54823;SDS011;40724;53.196;5.980;2022-07-29T00:32:30;2.28;;;1.00;;
54823;SDS011;40724;53.196;5.980;2022-07-29T00:34:56;3.47;;;1.95;;
54823;SDS011;40724;53.196;5.980;2022-07-29T00:37:42;3.40;;;1.38;;
54823;SDS011;40724;53.196;5.980;2022-07-29T00:40:08;3.08;;;1.58;;
54823;SDS011;40724;53.196;5.980;2022-07-29T00:42:43;3.05;;;1.30;;
54823;SDS011;40724;53.196;5.980;2022-07-29T00:45:10;2.60;;;1.10;;
54823;SDS011;40724;53.196;5.980;2022-07-29T00:47:37;2.47;;;1.30;;
54823;SDS011;40724;53.196;5.980;2022-07-29T00:50:05;1.73;;;1.00;;
54823;SDS011;40724;53.196;5.980;2022-07-29T00:52:32;2.00;;;1.15;;
54823;SDS011;40724;53.196;5.980;2022-07-29T00:54:58;1.92;;;1.10;;
54823;SDS011;40724;53.196;5.980;2022-07-29T00:57:25;4.32;;;1.35;;
54823;SDS011;40724;53.196;5.980;2022-07-29T00:59:51;2.40;;;1.42;;
54823;SDS011;40724;53.196;5.980;2022-07-29T01:02:17;3.03;;;1.35;;
54823;SDS011;40724;53.196;5.980;2022-07-29T01:04:43;3.90;;;1.80;;
54823;SDS011;40724;53.196;5.980;2022-07-29T01:07:09;2.90;;;1.02;;
54823;SDS011;40724;53.196;5.980;2022-07-29T01:09:35;3.55;;;1.35;;
54823;SDS011;40724;53.196;5.980;2022-07-29T01:12:02;3.45;;;1.02;;
54823;SDS011;40724;53.196;5.980;2022-07-29T01:14:29;3.58;;;1.45;;
54823;SDS011;40724;53.196;5.980;2022-07-29T01:17:00;1.95;;;1.20;;
54823;SDS011;40724;53.196;5.980;2022-07-29T01:19:45;3.15;;;1.40;;
54823;SDS011;40724;53.196;5.980;2022-07-29T01:22:19;2.67;;;0.98;;
54823;SDS011;40724;53.196;5.980;2022-07-29T01:30:01;3.83;;;1.25;;
54823;SDS011;40724;53.196;5.980;2022-07-29T01:32:29;4.80;;;1.63;;
54823;SDS011;40724;53.196;5.980;2022-07-29T01:35:10;2.88;;;1.33;;
54823;SDS011;40724;53.196;5.980;2022-07-29T01:37:40;3.78;;;1.33;;
54823;SDS011;40724;53.196;5.980;2022-07-29T01:40:18;3.75;;;1.35;;
54823;SDS011;40724;53.196;5.980;2022-07-29T01:42:48;2.17;;;1.40;;
54823;SDS011;40724;53.196;5.980;2022-07-29T01:45:22;4.43;;;1.13;;
54823;SDS011;40724;53.196;5.980;2022-07-29T01:48:00;4.82;;;2.00;;
54823;SDS011;40724;53.196;5.980;2022-07-29T01:50:35;2.80;;;1.40;;
54823;SDS011;40724;53.196;5.980;2022-07-29T01:53:05;2.28;;;1.52;;
54823;SDS011;40724;53.196;5.980;2022-07-29T01:55:34;3.15;;;1.45;;
54823;SDS011;40724;53.196;5.980;2022-07-29T01:58:00;4.32;;;1.27;;
54823;SDS011;40724;53.196;5.980;2022-07-29T02:00:29;5.95;;;1.83;;
54823;SDS011;40724;53.196;5.980;2022-07-29T02:02:56;3.80;;;1.50;;
54823;SDS011;40724;53.196;5.980;2022-07-29T02:05:25;4.35;;;1.42;;
54823;SDS011;40724;53.196;5.980;2022-07-29T02:07:52;2.05;;;1.40;;
54823;SDS011;40724;53.196;5.980;2022-07-29T02:10:21;1.65;;;1.23;;
54823;SDS011;40724;53.196;5.980;2022-07-29T02:12:48;2.83;;;1.60;;
54823;SDS011;40724;53.196;5.980;2022-07-29T02:15:15;3.53;;;1.40;;
54823;SDS011;40724;53.196;5.980;2022-07-29T02:17:43;3.78;;;1.65;;
54823;SDS011;40724;53.196;5.980;2022-07-29T02:20:11;3.65;;;1.20;;
54823;SDS011;40724;53.196;5.980;2022-07-29T02:22:39;3.85;;;1.83;;
54823;SDS011;40724;53.196;5.980;2022-07-29T02:25:09;3.65;;;1.20;;
54823;SDS011;40724;53.196;5.980;2022-07-29T02:27:36;3.13;;;1.60;;
54823;SDS011;40724;53.196;5.980;2022-07-29T02:30:03;4.60;;;1.92;;
54823;SDS011;40724;53.196;5.980;2022-07-29T02:32:30;4.75;;;1.50;;
54823;SDS011;40724;53.196;5.980;2022-07-29T02:34:57;5.15;;;2.03;;
54823;SDS011;40724;53.196;5.980;2022-07-29T02:37:24;3.47;;;1.70;;
54823;SDS011;40724;53.196;5.980;2022-07-29T02:39:52;5.70;;;1.65;;
54823;SDS011;40724;53.196;5.980;2022-07-29T02:42:19;8.48;;;1.50;;
54823;SDS011;40724;53.196;5.980;2022-07-29T02:44:47;5.53;;;1.50;;
54823;SDS011;40724;53.196;5.980;2022-07-29T02:47:18;3.35;;;1.77;;
54823;SDS011;40724;53.196;5.980;2022-07-29T02:50:00;3.08;;;1.80;;
54823;SDS011;40724;53.196;5.980;2022-07-29T02:52:27;4.53;;;1.90;;
54823;SDS011;40724;53.196;5.980;2022-07-29T02:57:43;3.55;;;1.80;;
54823;SDS011;40724;53.196;5.980;2022-07-29T03:00:10;3.58;;;1.38;;
54823;SDS011;40724;53.196;5.980;2022-07-29T03:02:38;4.68;;;2.05;;
54823;SDS011;40724;53.196;5.980;2022-07-29T03:05:05;3.45;;;1.98;;
54823;SDS011;40724;53.196;5.980;2022-07-29T03:07:33;3.60;;;1.75;;
54823;SDS011;40724;53.196;5.980;2022-07-29T03:10:00;2.58;;;1.60;;
54823;SDS011;40724;53.196;5.980;2022-07-29T03:12:27;4.75;;;1.77;;
54823;SDS011;40724;53.196;5.980;2022-07-29T03:14:54;3.28;;;1.65;;
54823;SDS011;40724;53.196;5.980;2022-07-29T03:17:21;4.18;;;1.70;;
54823;SDS011;40724;53.196;5.980;2022-07-29T03:19:47;1.83;;;1.38;;
54823;SDS011;40724;53.196;5.980;2022-07-29T03:22:13;4.72;;;1.48;;
54823;SDS011;40724;53.196;5.980;2022-07-29T03:24:40;4.43;;;1.88;;
54823;SDS011;40724;53.196;5.980;2022-07-29T03:27:06;5.05;;;1.80;;
54823;SDS011;40724;53.196;5.980;2022-07-29T03:29:32;4.30;;;1.38;;
54823;SDS011;40724;53.196;5.980;2022-07-29T03:31:59;3.97;;;1.52;;
54823;SDS011;40724;53.196;5.980;2022-07-29T03:34:25;3.47;;;1.80;;
54823;SDS011;40724;53.196;5.980;2022-07-29T03:36:51;3.38;;;1.95;;
54823;SDS011;40724;53.196;5.980;2022-07-29T03:39:18;3.20;;;1.42;;
54823;SDS011;40724;53.196;5.980;2022-07-29T03:41:47;2.72;;;1.75;;
54823;SDS011;40724;53.196;5.980;2022-07-29T03:44:13;2.67;;;1.10;;
54823;SDS011;40724;53.196;5.980;2022-07-29T03:46:41;3.13;;;1.45;;
54823;SDS011;40724;53.196;5.980;2022-07-29T03:49:07;5.93;;;1.67;;
54823;SDS011;40724;53.196;5.980;2022-07-29T03:51:34;2.22;;;1.48;;
54823;SDS011;40724;53.196;5.980;2022-07-29T03:54:02;2.63;;;1.40;;
54823;SDS011;40724;53.196;5.980;2022-07-29T03:56:28;4.40;;;1.58;;
54823;SDS011;40724;53.196;5.980;2022-07-29T03:58:55;6.35;;;1.50;;
54823;SDS011;40724;53.196;5.980;2022-07-29T04:01:21;5.00;;;1.77;;
54823;SDS011;40724;53.196;5.980;2022-07-29T04:03:48;3.42;;;1.50;;
54823;SDS011;40724;53.196;5.980;2022-07-29T04:06:14;4.55;;;1.65;;
54823;SDS011;40724;53.196;5.980;2022-07-29T04:08:40;5.03;;;1.50;;
54823;SDS011;40724;53.196;5.980;2022-07-29T04:11:07;5.32;;;1.80;;
54823;SDS011;40724;53.196;5.980;2022-07-29T04:13:33;4.38;;;1.48;;
54823;SDS011;40724;53.196;5.980;2022-07-29T04:16:00;5.15;;;2.00;;
54823;SDS011;40724;53.196;5.980;2022-07-29T04:18:29;4.30;;;1.88;;
54823;SDS011;40724;53.196;5.980;2022-07-29T04:20:56;1.70;;;1.25;;
54823;SDS011;40724;53.196;5.980;2022-07-29T04:23:26;3.97;;;1.58;;
54823;SDS011;40724;53.196;5.980;2022-07-29T04:25:52;2.88;;;1.30;;
54823;SDS011;40724;53.196;5.980;2022-07-29T04:28:18;6.60;;;1.77;;
54823;SDS011;40724;53.196;5.980;2022-07-29T04:30:44;2.35;;;1.23;;
54823;SDS011;40724;53.196;5.980;2022-07-29T04:33:10;2.95;;;1.65;;
54823;SDS011;40724;53.196;5.980;2022-07-29T04:35:37;3.83;;;1.88;;
54823;SDS011;40724;53.196;5.980;2022-07-29T04:38:03;2.47;;;1.20;;
54823;SDS011;40724;53.196;5.980;2022-07-29T04:40:30;3.78;;;1.45;;
54823;SDS011;40724;53.196;5.980;2022-07-29T04:42:58;2.42;;;1.23;;
54823;SDS011;40724;53.196;5.980;2022-07-29T04:45:24;4.43;;;1.70;;
54823;SDS011;40724;53.196;5.980;2022-07-29T04:47:51;3.80;;;2.13;;
54823;SDS011;40724;53.196;5.980;2022-07-29T04:50:17;4.90;;;1.90;;
54823;SDS011;40724;53.196;5.980;2022-07-29T04:52:43;3.83;;;1.75;;
54823;SDS011;40724;53.196;5.980;2022-07-29T04:55:09;3.72;;;2.08;;
54823;SDS011;40724;53.196;5.980;2022-07-29T04:57:35;4.28;;;1.80;;
54823;SDS011;40724;53.196;5.980;2022-07-29T05:00:03;3.70;;;1.40;;
54823;SDS011;40724;53.196;5.980;2022-07-29T05:02:29;3.38;;;1.42;;
54823;SDS011;40724;53.196;5.980;2022-07-29T05:04:55;6.45;;;1.70;;
54823;SDS011;40724;53.196;5.980;2022-07-29T05:07:21;2.78;;;1.30;;
54823;SDS011;40724;53.196;5.980;2022-07-29T05:09:47;4.95;;;1.73;;
54823;SDS011;40724;53.196;5.980;2022-07-29T05:12:14;3.70;;;1.30;;
54823;SDS011;40724;53.196;5.980;2022-07-29T05:14:40;3.58;;;1.77;;
54823;SDS011;40724;53.196;5.980;2022-07-29T05:17:06;3.78;;;2.17;;
54823;SDS011;40724;53.196;5.980;2022-07-29T05:19:33;6.97;;;1.85;;
54823;SDS011;40724;53.196;5.980;2022-07-29T05:21:59;3.45;;;1.60;;
54823;SDS011;40724;53.196;5.980;2022-07-29T05:24:25;3.47;;;1.25;;
54823;SDS011;40724;53.196;5.980;2022-07-29T05:26:51;4.05;;;1.30;;
54823;SDS011;40724;53.196;5.980;2022-07-29T05:29:17;3.13;;;1.38;;
54823;SDS011;40724;53.196;5.980;2022-07-29T05:31:44;3.10;;;1.40;;
54823;SDS011;40724;53.196;5.980;2022-07-29T05:34:10;2.03;;;1.20;;
54823;SDS011;40724;53.196;5.980;2022-07-29T05:36:36;4.43;;;1.25;;
54823;SDS011;40724;53.196;5.980;2022-07-29T05:39:02;2.40;;;1.73;;
54823;SDS011;40724;53.196;5.980;2022-07-29T05:41:31;4.72;;;1.50;;
54823;SDS011;40724;53.196;5.980;2022-07-29T05:43:57;6.28;;;1.67;;
54823;SDS011;40724;53.196;5.980;2022-07-29T05:46:23;6.13;;;1.55;;
54823;SDS011;40724;53.196;5.980;2022-07-29T05:48:50;4.93;;;1.80;;
54823;SDS011;40724;53.196;5.980;2022-07-29T05:51:16;2.65;;;1.73;;
54823;SDS011;40724;53.196;5.980;2022-07-29T05:53:42;2.80;;;1.52;;
54823;SDS011;40724;53.196;5.980;2022-07-29T05:56:09;6.07;;;1.77;;
54823;SDS011;40724;53.196;5.980;2022-07-29T05:58:36;3.65;;;1.63;;
54823;SDS011;40724;53.196;5.980;2022-07-29T06:01:02;4.28;;;1.85;;
54823;SDS011;40724;53.196;5.980;2022-07-29T06:03:28;4.07;;;1.60;;
54823;SDS011;40724;53.196;5.980;2022-07-29T06:05:55;3.15;;;1.58;;
54823;SDS011;40724;53.196;5.980;2022-07-29T06:08:21;4.05;;;1.75;;
54823;SDS011;40724;53.196;5.980;2022-07-29T06:10:47;5.35;;;1.45;;
54823;SDS011;40724;53.196;5.980;2022-07-29T06:13:13;4.75;;;1.92;;
54823;SDS011;40724;53.196;5.980;2022-07-29T06:15:43;5.38;;;1.60;;
54823;SDS011;40724;53.196;5.980;2022-07-29T06:18:11;6.53;;;1.90;;
54823;SDS011;40724;53.196;5.980;2022-07-29T06:20:38;4.72;;;1.67;;
54823;SDS011;40724;53.196;5.980;2022-07-29T06:23:04;3.10;;;1.30;;
54823;SDS011;40724;53.196;5.980;2022-07-29T06:25:30;2.47;;;1.55;;
54823;SDS011;40724;53.196;5.980;2022-07-29T06:28:01;7.55;;;1.73;;
54823;SDS011;40724;53.196;5.980;2022-07-29T06:30:28;4.95;;;2.42;;
54823;SDS011;40724;53.196;5.980;2022-07-29T06:32:54;8.35;;;2.38;;
54823;SDS011;40724;53.196;5.980;2022-07-29T06:35:20;5.10;;;2.22;;
54823;SDS011;40724;53.196;5.980;2022-07-29T06:37:46;4.05;;;2.05;;
54823;SDS011;40724;53.196;5.980;2022-07-29T06:40:13;3.40;;;1.58;;
54823;SDS011;40724;53.196;5.980;2022-07-29T06:42:58;2.92;;;1.88;;
54823;SDS011;40724;53.196;5.980;2022-07-29T06:45:24;3.70;;;1.77;;
54823;SDS011;40724;53.196;5.980;2022-07-29T06:47:50;3.75;;;2.10;;
54823;SDS011;40724;53.196;5.980;2022-07-29T06:50:16;4.90;;;2.00;;
54823;SDS011;40724;53.196;5.980;2022-07-29T06:52:42;4.05;;;1.73;;
54823;SDS011;40724;53.196;5.980;2022-07-29T06:55:09;4.13;;;1.75;;
54823;SDS011;40724;53.196;5.980;2022-07-29T06:57:35;4.55;;;1.58;;
54823;SDS011;40724;53.196;5.980;2022-07-29T07:00:01;4.55;;;1.95;;
54823;SDS011;40724;53.196;5.980;2022-07-29T07:02:29;7.85;;;1.90;;
54823;SDS011;40724;53.196;5.980;2022-07-29T07:04:56;2.30;;;1.38;;
54823;SDS011;40724;53.196;5.980;2022-07-29T07:07:22;4.18;;;1.73;;
54823;SDS011;40724;53.196;5.980;2022-07-29T07:09:48;6.55;;;1.95;;
54823;SDS011;40724;53.196;5.980;2022-07-29T07:12:14;2.50;;;1.50;;
54823;SDS011;40724;53.196;5.980;2022-07-29T07:14:40;3.25;;;1.48;;
54823;SDS011;40724;53.196;5.980;2022-07-29T07:17:06;5.32;;;1.92;;
54823;SDS011;40724;53.196;5.980;2022-07-29T07:19:33;6.72;;;2.00;;
54823;SDS011;40724;53.196;5.980;2022-07-29T07:21:59;4.75;;;1.98;;
54823;SDS011;40724;53.196;5.980;2022-07-29T07:24:25;2.83;;;1.52;;
54823;SDS011;40724;53.196;5.980;2022-07-29T07:26:51;5.10;;;1.70;;
54823;SDS011;40724;53.196;5.980;2022-07-29T07:29:17;5.70;;;1.75;;
54823;SDS011;40724;53.196;5.980;2022-07-29T07:31:43;20.33;;;3.30;;
54823;SDS011;40724;53.196;5.980;2022-07-29T07:34:10;2.63;;;1.58;;
54823;SDS011;40724;53.196;5.980;2022-07-29T07:36:36;4.30;;;1.73;;
54823;SDS011;40724;53.196;5.980;2022-07-29T07:39:02;3.05;;;1.73;;
54823;SDS011;40724;53.196;5.980;2022-07-29T07:41:30;5.15;;;1.58;;
54823;SDS011;40724;53.196;5.980;2022-07-29T07:43:56;2.95;;;1.80;;
54823;SDS011;40724;53.196;5.980;2022-07-29T07:46:22;2.97;;;1.50;;
54823;SDS011;40724;53.196;5.980;2022-07-29T07:48:48;3.05;;;1.80;;
54823;SDS011;40724;53.196;5.980;2022-07-29T07:51:15;5.20;;;1.88;;
54823;SDS011;40724;53.196;5.980;2022-07-29T07:53:41;2.42;;;1.63;;
54823;SDS011;40724;53.196;5.980;2022-07-29T07:56:07;2.55;;;1.70;;
54823;SDS011;40724;53.196;5.980;2022-07-29T07:58:33;3.55;;;1.83;;
54823;SDS011;40724;53.196;5.980;2022-07-29T08:01:00;6.28;;;2.00;;
54823;SDS011;40724;53.196;5.980;2022-07-29T08:03:26;4.22;;;1.70;;
54823;SDS011;40724;53.196;5.980;2022-07-29T08:05:52;5.38;;;2.50;;
54823;SDS011;40724;53.196;5.980;2022-07-29T08:08:19;3.58;;;1.50;;
54823;SDS011;40724;53.196;5.980;2022-07-29T08:10:46;3.67;;;2.03;;
54823;SDS011;40724;53.196;5.980;2022-07-29T08:13:18;3.80;;;1.52;;
54823;SDS011;40724;53.196;5.980;2022-07-29T08:15:45;5.63;;;2.42;;
54823;SDS011;40724;53.196;5.980;2022-07-29T08:18:14;5.38;;;3.00;;
54823;SDS011;40724;53.196;5.980;2022-07-29T08:20:40;3.55;;;1.85;;
54823;SDS011;40724;53.196;5.980;2022-07-29T08:23:07;4.82;;;2.20;;
54823;SDS011;40724;53.196;5.980;2022-07-29T08:25:35;4.97;;;1.88;;
54823;SDS011;40724;53.196;5.980;2022-07-29T08:28:01;3.05;;;1.83;;
54823;SDS011;40724;53.196;5.980;2022-07-29T08:30:27;4.05;;;1.48;;
54823;SDS011;40724;53.196;5.980;2022-07-29T08:32:53;8.73;;;2.35;;
54823;SDS011;40724;53.196;5.980;2022-07-29T08:35:20;4.45;;;1.75;;
54823;SDS011;40724;53.196;5.980;2022-07-29T08:37:46;5.60;;;2.15;;
54823;SDS011;40724;53.196;5.980;2022-07-29T08:40:12;3.15;;;2.00;;
54823;SDS011;40724;53.196;5.980;2022-07-29T08:42:39;4.80;;;1.88;;
54823;SDS011;40724;53.196;5.980;2022-07-29T08:45:06;5.68;;;1.92;;
54823;SDS011;40724;53.196;5.980;2022-07-29T08:47:32;6.35;;;2.95;;
54823;SDS011;40724;53.196;5.980;2022-07-29T08:50:01;5.43;;;2.58;;
54823;SDS011;40724;53.196;5.980;2022-07-29T08:52:27;8.73;;;2.38;;
54823;SDS011;40724;53.196;5.980;2022-07-29T08:54:55;3.15;;;2.30;;
54823;SDS011;40724;53.196;5.980;2022-07-29T08:57:22;4.97;;;2.10;;
54823;SDS011;40724;53.196;5.980;2022-07-29T08:59:48;6.10;;;2.08;;
54823;SDS011;40724;53.196;5.980;2022-07-29T09:02:18;3.42;;;2.20;;
54823;SDS011;40724;53.196;5.980;2022-07-29T09:04:46;4.72;;;2.15;;
54823;SDS011;40724;53.196;5.980;2022-07-29T09:07:17;5.00;;;2.67;;
54823;SDS011;40724;53.196;5.980;2022-07-29T09:09:43;4.63;;;2.33;;
54823;SDS011;40724;53.196;5.980;2022-07-29T09:12:10;5.00;;;1.88;;
54823;SDS011;40724;53.196;5.980;2022-07-29T09:14:40;8.30;;;2.90;;
54823;SDS011;40724;53.196;5.980;2022-07-29T09:17:06;5.32;;;2.83;;
54823;SDS011;40724;53.196;5.980;2022-07-29T09:19:34;3.03;;;1.80;;
54823;SDS011;40724;53.196;5.980;2022-07-29T09:22:00;4.28;;;2.17;;
54823;SDS011;40724;53.196;5.980;2022-07-29T09:24:37;5.13;;;2.05;;
54823;SDS011;40724;53.196;5.980;2022-07-29T09:27:08;4.82;;;2.05;;
54823;SDS011;40724;53.196;5.980;2022-07-29T09:29:34;4.07;;;2.17;;
54823;SDS011;40724;53.196;5.980;2022-07-29T09:32:00;7.80;;;2.60;;
54823;SDS011;40724;53.196;5.980;2022-07-29T09:34:28;6.30;;;2.13;;
54823;SDS011;40724;53.196;5.980;2022-07-29T09:36:56;7.93;;;2.45;;
54823;SDS011;40724;53.196;5.980;2022-07-29T09:39:26;4.15;;;2.38;;
54823;SDS011;40724;53.196;5.980;2022-07-29T09:41:54;4.82;;;2.45;;
54823;SDS011;40724;53.196;5.980;2022-07-29T09:44:21;8.82;;;2.75;;
54823;SDS011;40724;53.196;5.980;2022-07-29T09:46:54;4.63;;;2.22;;
54823;SDS011;40724;53.196;5.980;2022-07-29T09:49:20;4.03;;;2.30;;
54823;SDS011;40724;53.196;5.980;2022-07-29T09:51:46;3.70;;;2.03;;
54823;SDS011;40724;53.196;5.980;2022-07-29T09:54:25;5.53;;;2.78;;
54823;SDS011;40724;53.196;5.980;2022-07-29T09:56:53;3.58;;;2.30;;
54823;SDS011;40724;53.196;5.980;2022-07-29T09:59:19;4.95;;;2.40;;
54823;SDS011;40724;53.196;5.980;2022-07-29T10:01:48;4.35;;;2.10;;
54823;SDS011;40724;53.196;5.980;2022-07-29T10:04:15;4.35;;;2.00;;
54823;SDS011;40724;53.196;5.980;2022-07-29T10:06:57;5.05;;;2.67;;
54823;SDS011;40724;53.196;5.980;2022-07-29T10:12:09;5.50;;;2.38;;
54823;SDS011;40724;53.196;5.980;2022-07-29T10:14:38;5.90;;;2.40;;
54823;SDS011;40724;53.196;5.980;2022-07-29T10:17:05;5.25;;;2.40;;
54823;SDS011;40724;53.196;5.980;2022-07-29T10:19:32;4.18;;;2.40;;
54823;SDS011;40724;53.196;5.980;2022-07-29T10:21:59;8.10;;;2.33;;
54823;SDS011;40724;53.196;5.980;2022-07-29T10:24:26;3.78;;;2.15;;
54823;SDS011;40724;53.196;5.980;2022-07-29T10:26:54;4.88;;;2.65;;
54823;SDS011;40724;53.196;5.980;2022-07-29T10:29:20;4.50;;;2.53;;
54823;SDS011;40724;53.196;5.980;2022-07-29T10:31:58;4.97;;;2.22;;
54823;SDS011;40724;53.196;5.980;2022-07-29T10:34:31;6.47;;;2.83;;
54823;SDS011;40724;53.196;5.980;2022-07-29T10:37:07;7.10;;;2.17;;
54823;SDS011;40724;53.196;5.980;2022-07-29T10:42:18;3.28;;;2.33;;
54823;SDS011;40724;53.196;5.980;2022-07-29T10:44:45;6.72;;;3.17;;
54823;SDS011;40724;53.196;5.980;2022-07-29T10:50:00;3.78;;;2.20;;
54823;SDS011;40724;53.196;5.980;2022-07-29T11:00:38;7.75;;;2.88;;
54823;SDS011;40724;53.196;5.980;2022-07-29T11:03:05;10.60;;;3.00;;
54823;SDS011;40724;53.196;5.980;2022-07-29T11:05:41;3.50;;;2.00;;
54823;SDS011;40724;53.196;5.980;2022-07-29T11:08:17;8.82;;;3.17;;
54823;SDS011;40724;53.196;5.980;2022-07-29T11:10:46;5.97;;;2.17;;
54823;SDS011;40724;53.196;5.980;2022-07-29T11:13:12;5.15;;;2.72;;
54823;SDS011;40724;53.196;5.980;2022-07-29T11:15:57;5.47;;;2.42;;
54823;SDS011;40724;53.196;5.980;2022-07-29T11:18:23;4.20;;;2.10;;
54823;SDS011;40724;53.196;5.980;2022-07-29T11:20:50;4.35;;;2.15;;
54823;SDS011;40724;53.196;5.980;2022-07-29T11:23:23;7.43;;;2.78;;
54823;SDS011;40724;53.196;5.980;2022-07-29T11:28:34;4.32;;;2.53;;
54823;SDS011;40724;53.196;5.980;2022-07-29T11:31:02;6.30;;;2.83;;
54823;SDS011;40724;53.196;5.980;2022-07-29T11:33:33;9.98;;;2.88;;
54823;SDS011;40724;53.196;5.980;2022-07-29T11:36:09;10.38;;;2.40;;
54823;SDS011;40724;53.196;5.980;2022-07-29T11:38:36;8.35;;;2.85;;
54823;SDS011;40724;53.196;5.980;2022-07-29T11:41:36;3.85;;;3.00;;
54823;SDS011;40724;53.196;5.980;2022-07-29T11:44:01;11.02;;;3.00;;
54823;SDS011;40724;53.196;5.980;2022-07-29T11:49:12;17.77;;;3.40;;
54823;SDS011;40724;53.196;5.980;2022-07-29T11:51:39;4.95;;;2.60;;
54823;SDS011;40724;53.196;5.980;2022-07-29T11:54:07;7.32;;;2.97;;
54823;SDS011;40724;53.196;5.980;2022-07-29T11:56:38;6.30;;;2.92;;
54823;SDS011;40724;53.196;5.980;2022-07-29T11:59:05;5.55;;;2.72;;
54823;SDS011;40724;53.196;5.980;2022-07-29T12:01:34;4.32;;;2.20;;
54823;SDS011;40724;53.196;5.980;2022-07-29T12:04:06;4.97;;;2.25;;
54823;SDS011;40724;53.196;5.980;2022-07-29T12:06:33;8.63;;;3.30;;
54823;SDS011;40724;53.196;5.980;2022-07-29T12:09:00;3.13;;;2.40;;
54823;SDS011;40724;53.196;5.980;2022-07-29T12:11:26;4.82;;;2.65;;
54823;SDS011;40724;53.196;5.980;2022-07-29T12:13:52;8.15;;;2.70;;
54823;SDS011;40724;53.196;5.980;2022-07-29T12:16:19;7.72;;;2.45;;
54823;SDS011;40724;53.196;5.980;2022-07-29T12:18:58;5.13;;;2.42;;
54823;SDS011;40724;53.196;5.980;2022-07-29T12:21:25;4.72;;;2.40;;
54823;SDS011;40724;53.196;5.980;2022-07-29T12:23:55;7.18;;;3.22;;
54823;SDS011;40724;53.196;5.980;2022-07-29T12:26:22;6.78;;;3.33;;
54823;SDS011;40724;53.196;5.980;2022-07-29T12:28:48;5.32;;;2.63;;
54823;SDS011;40724;53.196;5.980;2022-07-29T12:31:14;4.05;;;2.63;;
54823;SDS011;40724;53.196;5.980;2022-07-29T12:33:41;4.47;;;2.65;;
54823;SDS011;40724;53.196;5.980;2022-07-29T12:36:07;7.05;;;2.75;;
54823;SDS011;40724;53.196;5.980;2022-07-29T12:38:34;6.88;;;2.90;;
54823;SDS011;40724;53.196;5.980;2022-07-29T12:41:01;4.00;;;2.67;;
54823;SDS011;40724;53.196;5.980;2022-07-29T12:43:27;6.78;;;3.17;;
54823;SDS011;40724;53.196;5.980;2022-07-29T12:45:54;7.82;;;2.50;;
54823;SDS011;40724;53.196;5.980;2022-07-29T12:48:33;4.47;;;2.90;;
54823;SDS011;40724;53.196;5.980;2022-07-29T12:51:01;6.18;;;2.90;;
54823;SDS011;40724;53.196;5.980;2022-07-29T12:53:28;6.30;;;2.85;;
54823;SDS011;40724;53.196;5.980;2022-07-29T12:55:55;8.65;;;3.83;;
54823;SDS011;40724;53.196;5.980;2022-07-29T13:01:16;7.60;;;2.97;;
54823;SDS011;40724;53.196;5.980;2022-07-29T13:08:59;9.18;;;3.20;;
54823;SDS011;40724;53.196;5.980;2022-07-29T13:11:29;6.03;;;2.88;;
54823;SDS011;40724;53.196;5.980;2022-07-29T13:13:55;7.40;;;3.13;;
54823;SDS011;40724;53.196;5.980;2022-07-29T13:16:22;5.82;;;2.92;;
54823;SDS011;40724;53.196;5.980;2022-07-29T13:18:48;11.20;;;3.33;;
54823;SDS011;40724;53.196;5.980;2022-07-29T13:21:14;6.10;;;2.95;;
54823;SDS011;40724;53.196;5.980;2022-07-29T13:23:41;8.38;;;3.38;;
54823;SDS011;40724;53.196;5.980;2022-07-29T13:26:08;7.63;;;3.67;;
54823;SDS011;40724;53.196;5.980;2022-07-29T13:28:35;4.97;;;3.30;;
54823;SDS011;40724;53.196;5.980;2022-07-29T13:31:01;9.52;;;3.25;;
54823;SDS011;40724;53.196;5.980;2022-07-29T13:33:27;10.23;;;3.42;;
54823;SDS011;40724;53.196;5.980;2022-07-29T13:35:54;7.97;;;3.05;;
54823;SDS011;40724;53.196;5.980;2022-07-29T13:38:20;9.68;;;3.42;;
54823;SDS011;40724;53.196;5.980;2022-07-29T13:40:46;6.30;;;3.03;;
54823;SDS011;40724;53.196;5.980;2022-07-29T13:43:12;10.02;;;3.78;;
54823;SDS011;40724;53.196;5.980;2022-07-29T13:45:39;10.85;;;3.55;;
54823;SDS011;40724;53.196;5.980;2022-07-29T13:48:05;5.35;;;2.92;;
54823;SDS011;40724;53.196;5.980;2022-07-29T13:50:31;7.20;;;3.65;;
54823;SDS011;40724;53.196;5.980;2022-07-29T13:52:58;5.95;;;2.92;;
54823;SDS011;40724;53.196;5.980;2022-07-29T13:55:24;5.13;;;2.88;;
54823;SDS011;40724;53.196;5.980;2022-07-29T13:57:50;6.50;;;3.10;;
54823;SDS011;40724;53.196;5.980;2022-07-29T14:00:17;7.82;;;2.92;;
54823;SDS011;40724;53.196;5.980;2022-07-29T14:02:44;10.73;;;3.70;;
54823;SDS011;40724;53.196;5.980;2022-07-29T14:05:10;6.82;;;3.10;;
54823;SDS011;40724;53.196;5.980;2022-07-29T14:07:38;8.55;;;3.60;;
54823;SDS011;40724;53.196;5.980;2022-07-29T14:10:04;5.55;;;2.90;;
54823;SDS011;40724;53.196;5.980;2022-07-29T14:12:30;6.97;;;3.40;;
54823;SDS011;40724;53.196;5.980;2022-07-29T14:14:57;7.00;;;2.75;;
54823;SDS011;40724;53.196;5.980;2022-07-29T14:17:23;7.82;;;2.80;;
54823;SDS011;40724;53.196;5.980;2022-07-29T14:19:49;9.00;;;2.65;;
54823;SDS011;40724;53.196;5.980;2022-07-29T14:22:15;6.25;;;3.00;;
54823;SDS011;40724;53.196;5.980;2022-07-29T14:24:44;9.38;;;4.38;;
54823;SDS011;40724;53.196;5.980;2022-07-29T14:27:10;8.18;;;3.58;;
54823;SDS011;40724;53.196;5.980;2022-07-29T14:29:36;14.32;;;4.30;;
54823;SDS011;40724;53.196;5.980;2022-07-29T14:32:03;7.90;;;3.35;;
54823;SDS011;40724;53.196;5.980;2022-07-29T14:34:29;9.75;;;3.53;;
54823;SDS011;40724;53.196;5.980;2022-07-29T14:36:55;6.80;;;3.88;;
54823;SDS011;40724;53.196;5.980;2022-07-29T14:39:22;7.38;;;2.80;;
54823;SDS011;40724;53.196;5.980;2022-07-29T14:41:48;10.70;;;3.60;;
54823;SDS011;40724;53.196;5.980;2022-07-29T14:44:16;5.82;;;2.63;;
54823;SDS011;40724;53.196;5.980;2022-07-29T14:46:43;6.15;;;3.15;;
54823;SDS011;40724;53.196;5.980;2022-07-29T14:49:09;8.20;;;2.78;;
54823;SDS011;40724;53.196;5.980;2022-07-29T14:51:35;12.77;;;3.13;;
54823;SDS011;40724;53.196;5.980;2022-07-29T14:54:02;5.78;;;2.45;;
54823;SDS011;40724;53.196;5.980;2022-07-29T14:56:28;7.05;;;3.45;;
54823;SDS011;40724;53.196;5.980;2022-07-29T14:58:55;5.15;;;2.78;;
54823;SDS011;40724;53.196;5.980;2022-07-29T15:01:22;6.95;;;2.83;;
54823;SDS011;40724;53.196;5.980;2022-07-29T15:03:49;6.35;;;3.10;;
54823;SDS011;40724;53.196;5.980;2022-07-29T15:06:15;14.18;;;3.22;;
54823;SDS011;40724;53.196;5.980;2022-07-29T15:08:42;4.60;;;2.80;;
54823;SDS011;40724;53.196;5.980;2022-07-29T15:11:08;4.00;;;2.53;;
54823;SDS011;40724;53.196;5.980;2022-07-29T15:13:34;6.18;;;2.78;;
54823;SDS011;40724;53.196;5.980;2022-07-29T15:16:01;5.50;;;2.40;;
54823;SDS011;40724;53.196;5.980;2022-07-29T15:18:27;6.50;;;2.97;;
54823;SDS011;40724;53.196;5.980;2022-07-29T15:20:53;6.60;;;2.70;;
54823;SDS011;40724;53.196;5.980;2022-07-29T15:23:19;6.63;;;2.60;;
54823;SDS011;40724;53.196;5.980;2022-07-29T15:25:46;6.10;;;2.20;;
54823;SDS011;40724;53.196;5.980;2022-07-29T15:28:12;9.15;;;3.22;;